createdAt,value
2019-02-17T00:00:06.805Z,94585.69
2019-02-17T00:00:40.104Z,94589.81
2019-02-17T00:01:04.486Z,94589.13
2019-02-17T00:01:28.886Z,94587.19
2019-02-17T00:01:52.226Z,94591.14
2019-02-17T00:02:15.104Z,94585.20
2019-02-17T00:02:37.885Z,94582.58
2019-02-17T00:03:00.805Z,94581.35
2019-02-17T00:03:23.565Z,94581.98
2019-02-17T00:03:46.424Z,94582.58
2019-02-17T00:04:09.283Z,94584.31
2019-02-17T00:04:32.384Z,94580.27
2019-02-17T00:04:55.185Z,94584.02
2019-02-17T00:05:18.046Z,94582.98
2019-02-17T00:05:40.844Z,94580.88
2019-02-17T00:06:03.572Z,94583.72
2019-02-17T00:06:26.403Z,94577.74
2019-02-17T00:06:49.145Z,94578.55
2019-02-17T00:07:12.023Z,94579.45
2019-02-17T00:07:35.065Z,94579.38
2019-02-17T00:07:58.452Z,94582.91
2019-02-17T00:08:21.426Z,94580.98
2019-02-17T00:08:44.544Z,94578.16
2019-02-17T00:09:08.932Z,94579.38
2019-02-17T00:09:31.685Z,94578.47
2019-02-17T00:09:54.784Z,94578.98
2019-02-17T00:10:17.605Z,94577.66
2019-02-17T00:10:40.346Z,94577.45
2019-02-17T00:11:03.088Z,94574.72
2019-02-17T00:11:25.886Z,94572.80
2019-02-17T00:11:48.784Z,94578.05
2019-02-17T00:12:11.689Z,94578.14
2019-02-17T00:12:34.426Z,94576.44
2019-02-17T00:12:57.203Z,94573.70
2019-02-17T00:13:19.986Z,94574.30
2019-02-17T00:13:42.865Z,94578.55
2019-02-17T00:14:05.804Z,94577.94
2019-02-17T00:14:28.707Z,94576.72
2019-02-17T00:14:51.765Z,94574.91
2019-02-17T00:15:14.664Z,94576.91
2019-02-17T00:15:37.465Z,94573.07
2019-02-17T00:16:00.465Z,94571.25
2019-02-17T00:16:23.744Z,94569.43
2019-02-17T00:16:46.505Z,94575.80
2019-02-17T00:17:09.327Z,94575.55
2019-02-17T00:17:32.844Z,94571.62
2019-02-17T00:17:55.686Z,94574.80
2019-02-17T00:18:18.483Z,94574.80
2019-02-17T00:18:41.424Z,94573.07
2019-02-17T00:19:04.464Z,94576.08
2019-02-17T00:19:27.265Z,94573.79
2019-02-17T00:19:49.985Z,94580.69
2019-02-17T00:20:12.867Z,94571.80
2019-02-17T00:20:36.045Z,94571.58
2019-02-17T00:20:58.904Z,94575.82
2019-02-17T00:21:21.706Z,94573.19
2019-02-17T00:21:44.705Z,94577.52
2019-02-17T00:22:07.467Z,94579.55
2019-02-17T00:22:31.151Z,94573.38
2019-02-17T00:22:55.505Z,94577.94
2019-02-17T00:23:18.565Z,94575.31
2019-02-17T00:23:41.345Z,94574.33
2019-02-17T00:24:04.225Z,94573.14
2019-02-17T00:24:27.005Z,94572.00
2019-02-17T00:24:49.805Z,94570.39
2019-02-17T00:25:13.184Z,94571.91
2019-02-17T00:25:35.925Z,94566.57
2019-02-17T00:25:58.704Z,94570.12
2019-02-17T00:26:21.925Z,94569.44
2019-02-17T00:26:45.010Z,94572.17
2019-02-17T00:27:07.765Z,94572.16
2019-02-17T00:27:30.566Z,94572.88
2019-02-17T00:27:53.825Z,94573.52
2019-02-17T00:28:16.945Z,94572.09
2019-02-17T00:28:39.792Z,94567.05
2019-02-17T00:29:02.702Z,94568.77
2019-02-17T00:29:25.586Z,94568.88
2019-02-17T00:29:48.386Z,94570.09
2019-02-17T00:30:11.185Z,94572.30
2019-02-17T00:30:33.986Z,94573.92
2019-02-17T00:30:56.765Z,94565.86
2019-02-17T00:31:19.485Z,94564.94
2019-02-17T00:31:42.245Z,94566.95
2019-02-17T00:32:05.045Z,94569.70
2019-02-17T00:32:28.145Z,94572.21
2019-02-17T00:32:51.005Z,94566.86
2019-02-17T00:33:13.785Z,94567.56
2019-02-17T00:33:36.644Z,94559.71
2019-02-17T00:33:59.805Z,94567.66
2019-02-17T00:34:24.685Z,94566.06
2019-02-17T00:34:47.446Z,94565.94
2019-02-17T00:35:10.322Z,94564.75
2019-02-17T00:35:33.685Z,94562.00
2019-02-17T00:35:56.544Z,94563.53
2019-02-17T00:36:19.564Z,94569.69
2019-02-17T00:36:42.625Z,94560.99
2019-02-17T00:37:05.867Z,94560.11
2019-02-17T00:37:28.765Z,94563.63
2019-02-17T00:37:51.506Z,94566.66
2019-02-17T00:38:14.304Z,94563.53
2019-02-17T00:38:36.986Z,94566.44
2019-02-17T00:38:59.804Z,94567.87
2019-02-17T00:39:22.648Z,94559.51
2019-02-17T00:39:45.905Z,94568.16
2019-02-17T00:40:09.624Z,94564.05
2019-02-17T00:40:32.484Z,94558.36
2019-02-17T00:40:55.284Z,94567.36
2019-02-17T00:41:18.505Z,94566.43
2019-02-17T00:41:41.447Z,94562.00
2019-02-17T00:42:04.265Z,94561.47
2019-02-17T00:42:26.983Z,94567.61
2019-02-17T00:42:49.825Z,94563.47
2019-02-17T00:43:12.623Z,94563.86
2019-02-17T00:43:35.445Z,94565.17
2019-02-17T00:43:58.185Z,94563.35
2019-02-17T00:44:21.024Z,94561.05
2019-02-17T00:44:43.945Z,94557.89
2019-02-17T00:45:06.865Z,94557.98
2019-02-17T00:45:29.585Z,94561.80
2019-02-17T00:45:52.624Z,94559.08
2019-02-17T00:46:15.784Z,94564.81
2019-02-17T00:46:39.185Z,94558.84
2019-02-17T00:47:02.225Z,94562.69
2019-02-17T00:47:24.945Z,94560.06
2019-02-17T00:47:47.684Z,94559.94
2019-02-17T00:48:10.545Z,94555.65
2019-02-17T00:48:33.425Z,94558.70
2019-02-17T00:48:56.166Z,94559.83
2019-02-17T00:49:19.426Z,94560.34
2019-02-17T00:49:42.327Z,94556.94
2019-02-17T00:50:05.546Z,94555.20
2019-02-17T00:50:28.326Z,94556.33
2019-02-17T00:50:51.124Z,94554.42
2019-02-17T00:51:13.986Z,94561.78
2019-02-17T00:51:36.785Z,94556.65
2019-02-17T00:51:59.644Z,94562.02
2019-02-17T00:52:22.449Z,94551.59
2019-02-17T00:52:45.545Z,94556.55
2019-02-17T00:53:08.365Z,94556.55
2019-02-17T00:53:31.108Z,94561.40
2019-02-17T00:53:54.085Z,94557.77
2019-02-17T00:54:17.385Z,94561.20
2019-02-17T00:54:40.165Z,94560.19
2019-02-17T00:55:03.198Z,94557.88
2019-02-17T00:55:26.207Z,94557.67
2019-02-17T00:55:49.064Z,94559.79
2019-02-17T00:56:11.824Z,94558.45
2019-02-17T00:56:34.667Z,94558.45
2019-02-17T00:56:57.426Z,94558.66
2019-02-17T00:57:20.365Z,94554.63
2019-02-17T00:57:43.185Z,94554.45
2019-02-17T00:58:05.965Z,94561.20
2019-02-17T00:58:28.678Z,94556.66
2019-02-17T00:58:51.525Z,94558.98
2019-02-17T00:59:14.224Z,94564.04
2019-02-17T00:59:37.044Z,94555.58
2019-02-17T00:59:59.784Z,94557.98
2019-02-17T01:00:22.785Z,94555.95
2019-02-17T01:00:45.545Z,94556.76
2019-02-17T01:01:08.329Z,94560.89
2019-02-17T01:01:31.327Z,94559.79
2019-02-17T01:01:54.095Z,94555.55
2019-02-17T01:02:16.871Z,94561.00
2019-02-17T01:02:40.168Z,94558.08
2019-02-17T01:03:02.872Z,94554.97
2019-02-17T01:03:26.130Z,94556.45
2019-02-17T01:03:48.929Z,94562.51
2019-02-17T01:04:11.747Z,94559.88
2019-02-17T01:04:34.988Z,94557.97
2019-02-17T01:04:57.989Z,94556.28
2019-02-17T01:05:20.768Z,94552.14
2019-02-17T01:05:43.628Z,94556.88
2019-02-17T01:06:06.469Z,94560.70
2019-02-17T01:06:29.248Z,94551.33
2019-02-17T01:06:52.049Z,94555.76
2019-02-17T01:07:15.627Z,94556.97
2019-02-17T01:07:38.454Z,94561.11
2019-02-17T01:08:01.329Z,94554.55
2019-02-17T01:08:24.629Z,94554.75
2019-02-17T01:08:47.788Z,94552.94
2019-02-17T01:09:10.570Z,94550.31
2019-02-17T01:09:33.370Z,94549.30
2019-02-17T01:09:56.689Z,94555.66
2019-02-17T01:10:20.129Z,94554.84
2019-02-17T01:10:43.028Z,94558.77
2019-02-17T01:11:05.828Z,94556.98
2019-02-17T01:11:29.267Z,94548.09
2019-02-17T01:11:52.470Z,94547.39
2019-02-17T01:12:15.427Z,94342.59
2019-02-17T01:12:38.247Z,94546.35
2019-02-17T01:13:01.189Z,94546.18
2019-02-17T01:13:23.967Z,94550.31
2019-02-17T01:13:47.162Z,94543.25
2019-02-17T01:14:10.869Z,94547.89
2019-02-17T01:14:34.027Z,94546.28
2019-02-17T01:14:56.948Z,94554.34
2019-02-17T01:15:19.735Z,94549.89
2019-02-17T01:15:42.528Z,94546.55
2019-02-17T01:16:05.648Z,94544.23
2019-02-17T01:16:28.530Z,94542.63
2019-02-17T01:16:51.568Z,94548.07
2019-02-17T01:17:14.468Z,94545.45
2019-02-17T01:17:37.329Z,94550.19
2019-02-17T01:18:00.648Z,94547.97
2019-02-17T01:18:23.548Z,94541.42
2019-02-17T01:18:46.328Z,94542.02
2019-02-17T01:19:09.268Z,94539.42
2019-02-17T01:19:32.688Z,94538.21
2019-02-17T01:19:55.427Z,94538.01
2019-02-17T01:20:18.588Z,94537.70
2019-02-17T01:20:41.690Z,94541.55
2019-02-17T01:21:04.427Z,94540.55
2019-02-17T01:21:27.188Z,94539.94
2019-02-17T01:21:50.008Z,94539.23
2019-02-17T01:22:12.928Z,94539.93
2019-02-17T01:22:35.787Z,94540.55
2019-02-17T01:22:58.729Z,94543.84
2019-02-17T01:23:21.608Z,94542.05
2019-02-17T01:23:44.751Z,94537.10
2019-02-17T01:24:07.569Z,94539.31
2019-02-17T01:24:30.466Z,94539.53
2019-02-17T01:24:53.269Z,94540.02
2019-02-17T01:25:16.029Z,94537.70
2019-02-17T01:25:38.868Z,94544.56
2019-02-17T01:26:02.025Z,94540.84
2019-02-17T01:26:24.746Z,94539.33
2019-02-17T01:26:47.608Z,94537.89
2019-02-17T01:27:11.347Z,94535.56
2019-02-17T01:27:34.190Z,94534.55
2019-02-17T01:27:57.308Z,94538.28
2019-02-17T01:28:20.147Z,94534.64
2019-02-17T01:28:43.808Z,94532.20
2019-02-17T01:29:06.568Z,94540.50
2019-02-17T01:29:29.728Z,94532.92
2019-02-17T01:29:52.487Z,94537.96
2019-02-17T01:30:15.352Z,94535.25
2019-02-17T01:30:38.188Z,94531.00
2019-02-17T01:31:00.948Z,94536.55
2019-02-17T01:31:23.748Z,94532.91
2019-02-17T01:31:46.627Z,94533.63
2019-02-17T01:32:09.508Z,94533.23
2019-02-17T01:32:32.308Z,94532.94
2019-02-17T01:32:55.215Z,94535.86
2019-02-17T01:33:18.010Z,94533.76
2019-02-17T01:33:41.133Z,94531.33
2019-02-17T01:34:05.727Z,94532.73
2019-02-17T01:34:28.528Z,94533.15
2019-02-17T01:34:51.307Z,94533.95
2019-02-17T01:35:14.113Z,94529.30
2019-02-17T01:35:37.008Z,94537.38
2019-02-17T01:36:00.629Z,94531.62
2019-02-17T01:36:23.467Z,94530.81
2019-02-17T01:36:46.449Z,94531.63
2019-02-17T01:37:09.207Z,94531.63
2019-02-17T01:37:31.968Z,94531.65
2019-02-17T01:37:54.767Z,94524.08
2019-02-17T01:38:17.647Z,94527.00
2019-02-17T01:38:40.387Z,94528.71
2019-02-17T01:39:04.706Z,94527.31
2019-02-17T01:39:27.848Z,94529.72
2019-02-17T01:39:50.727Z,94527.19
2019-02-17T01:40:13.992Z,94527.52
2019-02-17T01:40:37.127Z,94527.92
2019-02-17T01:40:59.926Z,94524.48
2019-02-17T01:41:24.787Z,94525.62
2019-02-17T01:41:47.586Z,94518.84
2019-02-17T01:42:10.367Z,94521.47
2019-02-17T01:42:33.145Z,94524.88
2019-02-17T01:42:55.966Z,94526.08
2019-02-17T01:43:19.227Z,94526.08
2019-02-17T01:43:42.166Z,94525.16
2019-02-17T01:44:04.966Z,94523.75
2019-02-17T01:44:27.906Z,94523.66
2019-02-17T01:44:50.687Z,94519.53
2019-02-17T01:45:13.706Z,94522.08
2019-02-17T01:45:36.567Z,94520.15
2019-02-17T01:45:59.426Z,94524.38
2019-02-17T01:46:22.646Z,94519.66
2019-02-17T01:46:45.567Z,94520.16
2019-02-17T01:47:08.327Z,94518.92
2019-02-17T01:47:31.127Z,94515.09
2019-02-17T01:47:54.512Z,94516.30
2019-02-17T01:48:17.446Z,94518.42
2019-02-17T01:48:40.268Z,94516.57
2019-02-17T01:49:02.987Z,94517.59
2019-02-17T01:49:25.787Z,94512.04
2019-02-17T01:49:48.629Z,94514.36
2019-02-17T01:50:11.687Z,94512.04
2019-02-17T01:50:34.548Z,94510.48
2019-02-17T01:50:57.767Z,94509.51
2019-02-17T01:51:20.546Z,94508.88
2019-02-17T01:51:43.429Z,94508.67
2019-02-17T01:52:06.507Z,94512.43
2019-02-17T01:52:29.286Z,94511.80
2019-02-17T01:52:52.827Z,94507.78
2019-02-17T01:53:15.626Z,94505.92
2019-02-17T01:53:38.408Z,94506.64
2019-02-17T01:54:01.417Z,94503.93
2019-02-17T01:54:24.427Z,94503.63
2019-02-17T01:54:47.349Z,94506.25
2019-02-17T01:55:10.066Z,94507.69
2019-02-17T01:55:33.346Z,94501.75
2019-02-17T01:55:56.468Z,94507.92
2019-02-17T01:56:19.387Z,94502.46
2019-02-17T01:56:42.286Z,94507.12
2019-02-17T01:57:05.109Z,94505.47
2019-02-17T01:57:27.929Z,94506.67
2019-02-17T01:57:51.187Z,94501.62
2019-02-17T01:58:14.125Z,94499.61
2019-02-17T01:58:36.906Z,94506.08
2019-02-17T01:58:59.668Z,94503.87
2019-02-17T01:59:30.458Z,94505.78
2019-02-17T01:59:46.986Z,94498.92
2019-02-17T02:00:09.747Z,94502.32
2019-02-17T02:00:33.007Z,94506.85
2019-02-17T02:00:55.785Z,94504.31
2019-02-17T02:01:18.547Z,94502.91
2019-02-17T02:01:41.308Z,94501.52
2019-02-17T02:02:04.046Z,94502.20
2019-02-17T02:02:27.046Z,94504.61
2019-02-17T02:02:49.846Z,94503.09
2019-02-17T02:03:12.946Z,94494.45
2019-02-17T02:03:35.746Z,94497.17
2019-02-17T02:03:58.647Z,94497.08
2019-02-17T02:04:21.425Z,94497.87
2019-02-17T02:04:44.626Z,94498.98
2019-02-17T02:05:07.609Z,94499.28
2019-02-17T02:05:30.426Z,94495.72
2019-02-17T02:05:53.285Z,94500.59
2019-02-17T02:06:16.066Z,94498.27
2019-02-17T02:06:39.265Z,94495.05
2019-02-17T02:07:01.951Z,94495.47
2019-02-17T02:07:25.005Z,94498.22
2019-02-17T02:07:47.905Z,94499.03
2019-02-17T02:08:10.705Z,94500.76
2019-02-17T02:08:33.526Z,94500.55
2019-02-17T02:08:56.706Z,94496.44
2019-02-17T02:09:19.646Z,94497.84
2019-02-17T02:09:42.874Z,94499.87
2019-02-17T02:10:05.824Z,94495.84
2019-02-17T02:10:28.725Z,94496.56
2019-02-17T02:10:51.785Z,94499.48
2019-02-17T02:11:14.665Z,94492.75
2019-02-17T02:11:37.505Z,94491.44
2019-02-17T02:12:00.305Z,94497.70
2019-02-17T02:12:23.086Z,94491.82
2019-02-17T02:12:45.926Z,94493.55
2019-02-17T02:13:08.806Z,94494.45
2019-02-17T02:13:31.726Z,94499.09
2019-02-17T02:13:54.569Z,94500.41
2019-02-17T02:14:17.246Z,94497.78
2019-02-17T02:14:40.566Z,94490.92
2019-02-17T02:15:03.225Z,94502.62
2019-02-17T02:15:26.467Z,94498.68
2019-02-17T02:15:50.206Z,94501.55
2019-02-17T02:16:12.966Z,94500.83
2019-02-17T02:16:36.108Z,94493.84
2019-02-17T02:16:59.026Z,94491.44
2019-02-17T02:17:22.025Z,94497.58
2019-02-17T02:17:44.886Z,94492.08
2019-02-17T02:18:07.807Z,94497.75
2019-02-17T02:18:30.565Z,94496.44
2019-02-17T02:18:55.006Z,94496.91
2019-02-17T02:19:18.506Z,94491.37
2019-02-17T02:19:41.265Z,94493.95
2019-02-17T02:20:03.926Z,94493.86
2019-02-17T02:20:26.706Z,94487.59
2019-02-17T02:20:49.766Z,94483.65
2019-02-17T02:21:12.626Z,94490.00
2019-02-17T02:21:35.365Z,94476.53
2019-02-17T02:21:58.145Z,94488.41
2019-02-17T02:22:21.225Z,94493.40
2019-02-17T02:22:44.166Z,94488.09
2019-02-17T02:23:07.346Z,94490.47
2019-02-17T02:23:30.306Z,94492.80
2019-02-17T02:23:53.065Z,94486.12
2019-02-17T02:24:16.065Z,94490.89
2019-02-17T02:24:38.864Z,94489.04
2019-02-17T02:25:01.646Z,94488.52
2019-02-17T02:25:24.486Z,94487.59
2019-02-17T02:25:47.584Z,94486.88
2019-02-17T02:26:10.346Z,94487.42
2019-02-17T02:26:33.344Z,94493.52
2019-02-17T02:26:56.245Z,94491.64
2019-02-17T02:27:19.044Z,94483.27
2019-02-17T02:27:42.185Z,94490.42
2019-02-17T02:28:04.925Z,94488.42
2019-02-17T02:28:27.908Z,94488.90
2019-02-17T02:28:50.985Z,94481.63
2019-02-17T02:29:13.825Z,94485.55
2019-02-17T02:29:40.955Z,94487.53
2019-02-17T02:30:01.432Z,94485.41
2019-02-17T02:30:24.725Z,94486.30
2019-02-17T02:30:47.586Z,94487.31
2019-02-17T02:31:10.446Z,94485.20
2019-02-17T02:31:33.257Z,94478.48
2019-02-17T02:31:56.131Z,94484.53
2019-02-17T02:32:19.024Z,94485.73
2019-02-17T02:32:42.810Z,94481.27
2019-02-17T02:33:05.766Z,94483.50
2019-02-17T02:33:28.845Z,94480.28
2019-02-17T02:33:51.752Z,94487.14
2019-02-17T02:34:14.807Z,94484.75
2019-02-17T02:34:38.187Z,94480.75
2019-02-17T02:35:00.985Z,94480.97
2019-02-17T02:35:23.806Z,94476.61
2019-02-17T02:35:46.865Z,94479.92
2019-02-17T02:36:09.705Z,94483.05
2019-02-17T02:36:32.745Z,94483.14
2019-02-17T02:36:55.585Z,94483.44
2019-02-17T02:37:18.506Z,94473.11
2019-02-17T02:37:41.744Z,94479.77
2019-02-17T02:38:04.488Z,94477.80
2019-02-17T02:38:27.704Z,94479.23
2019-02-17T02:38:50.625Z,94480.42
2019-02-17T02:39:13.566Z,94474.38
2019-02-17T02:39:36.426Z,94477.00
2019-02-17T02:39:59.268Z,94476.07
2019-02-17T02:40:22.146Z,94476.67
2019-02-17T02:40:45.108Z,94472.94
2019-02-17T02:41:07.945Z,94475.95
2019-02-17T02:41:34.675Z,94477.89
2019-02-17T02:41:55.306Z,94476.49
2019-02-17T02:42:18.065Z,94469.93
2019-02-17T02:42:40.972Z,94471.93
2019-02-17T02:43:03.783Z,94471.75
2019-02-17T02:43:26.644Z,94469.52
2019-02-17T02:43:49.505Z,94471.75
2019-02-17T02:44:12.283Z,94478.78
2019-02-17T02:44:35.284Z,94475.69
2019-02-17T02:44:58.094Z,94476.58
2019-02-17T02:45:20.905Z,94475.48
2019-02-17T02:45:43.749Z,94473.95
2019-02-17T02:46:06.834Z,94473.57
2019-02-17T02:46:29.905Z,94473.19
2019-02-17T02:46:52.904Z,94478.02
2019-02-17T02:47:15.824Z,94479.66
2019-02-17T02:47:38.632Z,94474.41
2019-02-17T02:48:01.584Z,94475.81
2019-02-17T02:48:25.012Z,94471.58
2019-02-17T02:48:47.886Z,94476.20
2019-02-17T02:49:10.885Z,94474.41
2019-02-17T02:49:33.625Z,94475.81
2019-02-17T02:49:56.483Z,94469.84
2019-02-17T02:50:19.600Z,94475.30
2019-02-17T02:50:42.428Z,94469.81
2019-02-17T02:51:05.685Z,94472.77
2019-02-17T02:51:28.453Z,94472.13
2019-02-17T02:51:51.525Z,94472.77
2019-02-17T02:52:14.665Z,94472.26
2019-02-17T02:52:38.461Z,94471.96
2019-02-17T02:53:01.585Z,94472.64
2019-02-17T02:53:24.664Z,94468.41
2019-02-17T02:53:47.644Z,94470.83
2019-02-17T02:54:12.506Z,94472.14
2019-02-17T02:54:35.304Z,94471.54
2019-02-17T02:54:58.145Z,94469.52
2019-02-17T02:55:21.024Z,94470.23
2019-02-17T02:55:43.825Z,94466.20
2019-02-17T02:56:07.103Z,94467.55
2019-02-17T02:56:30.304Z,94472.77
2019-02-17T02:56:53.084Z,94464.69
2019-02-17T02:57:15.948Z,94472.50
2019-02-17T02:57:38.724Z,94471.88
2019-02-17T02:58:01.487Z,94465.31
2019-02-17T02:58:24.525Z,94469.91
2019-02-17T02:58:47.264Z,94467.07
2019-02-17T02:59:10.068Z,94469.19
2019-02-17T02:59:33.093Z,94468.73
2019-02-17T02:59:55.964Z,94465.84
2019-02-17T03:00:18.786Z,94462.03
2019-02-17T03:00:41.565Z,94465.38
2019-02-17T03:01:06.064Z,94467.28
2019-02-17T03:01:28.884Z,94467.16
2019-02-17T03:01:51.723Z,94464.00
2019-02-17T03:02:14.864Z,94467.55
2019-02-17T03:02:37.825Z,94470.05
2019-02-17T03:03:00.632Z,94464.20
2019-02-17T03:03:23.446Z,94466.33
2019-02-17T03:03:47.106Z,94464.80
2019-02-17T03:04:11.110Z,94467.13
2019-02-17T03:04:33.844Z,94465.81
2019-02-17T03:04:57.524Z,94468.02
2019-02-17T03:05:20.424Z,94462.69
2019-02-17T03:05:44.764Z,94467.09
2019-02-17T03:06:09.186Z,94464.69
2019-02-17T03:06:33.485Z,94468.92
2019-02-17T03:06:57.884Z,94464.89
2019-02-17T03:07:20.724Z,94467.43
2019-02-17T03:07:43.586Z,94466.03
2019-02-17T03:08:06.311Z,94466.30
2019-02-17T03:08:29.165Z,94462.90
2019-02-17T03:08:52.026Z,94461.88
2019-02-17T03:09:15.247Z,94463.49
2019-02-17T03:09:38.084Z,94460.27
2019-02-17T03:10:00.964Z,94466.23
2019-02-17T03:10:24.791Z,94468.86
2019-02-17T03:10:47.685Z,94465.52
2019-02-17T03:11:10.694Z,94459.67
2019-02-17T03:11:33.504Z,94459.29
2019-02-17T03:11:56.606Z,94465.38
2019-02-17T03:12:19.944Z,94461.91
2019-02-17T03:12:43.304Z,94459.89
2019-02-17T03:13:08.923Z,94461.80
2019-02-17T03:13:31.667Z,94457.67
2019-02-17T03:13:54.510Z,94460.13
2019-02-17T03:14:17.443Z,94465.06
2019-02-17T03:14:40.225Z,94466.41
2019-02-17T03:15:03.060Z,94463.56
2019-02-17T03:15:25.863Z,94459.93
2019-02-17T03:15:48.743Z,94462.17
2019-02-17T03:16:11.983Z,94459.75
2019-02-17T03:16:35.123Z,94464.38
2019-02-17T03:17:00.483Z,94461.15
2019-02-17T03:17:22.604Z,94460.55
2019-02-17T03:17:45.726Z,94462.27
2019-02-17T03:18:08.563Z,94462.17
2019-02-17T03:18:31.304Z,94460.66
2019-02-17T03:18:54.744Z,94461.58
2019-02-17T03:19:17.545Z,94461.98
2019-02-17T03:19:40.303Z,94459.75
2019-02-17T03:20:02.947Z,94464.39
2019-02-17T03:20:25.765Z,94461.45
2019-02-17T03:20:48.603Z,94457.13
2019-02-17T03:21:11.803Z,94463.98
2019-02-17T03:21:34.625Z,94459.05
2019-02-17T03:21:58.184Z,94462.59
2019-02-17T03:22:21.025Z,94458.35
2019-02-17T03:22:43.825Z,94457.53
2019-02-17T03:23:06.724Z,94459.93
2019-02-17T03:23:29.606Z,94459.50
2019-02-17T03:23:53.014Z,94463.11
2019-02-17T03:24:16.185Z,94463.61
2019-02-17T03:24:39.022Z,94462.06
2019-02-17T03:25:02.274Z,94463.67
2019-02-17T03:25:25.053Z,94462.59
2019-02-17T03:25:47.985Z,94459.08
2019-02-17T03:26:10.797Z,94465.41
2019-02-17T03:26:34.301Z,94461.05
2019-02-17T03:26:57.063Z,94463.38
2019-02-17T03:27:20.166Z,94464.33
2019-02-17T03:27:42.887Z,94457.05
2019-02-17T03:28:05.725Z,94461.46
2019-02-17T03:28:28.645Z,94460.87
2019-02-17T03:28:51.383Z,94460.48
2019-02-17T03:29:14.244Z,94460.69
2019-02-17T03:29:36.883Z,94459.08
2019-02-17T03:30:04.807Z,94463.61
2019-02-17T03:30:24.244Z,94464.51
2019-02-17T03:30:47.025Z,94460.39
2019-02-17T03:31:09.865Z,94459.89
2019-02-17T03:31:32.708Z,94459.98
2019-02-17T03:31:55.525Z,94462.00
2019-02-17T03:32:18.665Z,94459.55
2019-02-17T03:32:42.245Z,94463.38
2019-02-17T03:33:05.385Z,94466.71
2019-02-17T03:33:28.386Z,94461.88
2019-02-17T03:33:51.465Z,94465.73
2019-02-17T03:34:14.525Z,94467.45
2019-02-17T03:34:37.523Z,94463.70
2019-02-17T03:35:00.443Z,94466.12
2019-02-17T03:35:23.664Z,94464.39
2019-02-17T03:35:46.504Z,94459.98
2019-02-17T03:36:09.510Z,94460.66
2019-02-17T03:36:32.304Z,94469.16
2019-02-17T03:36:55.145Z,94464.62
2019-02-17T03:37:18.364Z,94461.28
2019-02-17T03:37:41.505Z,94462.36
2019-02-17T03:38:04.384Z,94461.64
2019-02-17T03:38:27.214Z,94460.33
2019-02-17T03:38:50.183Z,94461.94
2019-02-17T03:39:13.444Z,94461.16
2019-02-17T03:39:36.263Z,94461.58
2019-02-17T03:39:59.344Z,94462.18
2019-02-17T03:40:22.203Z,94465.52
2019-02-17T03:40:45.007Z,94460.66
2019-02-17T03:41:07.822Z,94461.80
2019-02-17T03:41:30.703Z,94467.28
2019-02-17T03:41:53.468Z,94463.66
2019-02-17T03:42:16.244Z,94461.22
2019-02-17T03:42:39.684Z,94459.50
2019-02-17T03:43:02.804Z,94463.98
2019-02-17T03:43:25.803Z,94460.94
2019-02-17T03:43:48.584Z,94461.36
2019-02-17T03:44:11.523Z,94460.76
2019-02-17T03:44:34.303Z,94466.83
2019-02-17T03:44:57.423Z,94459.27
2019-02-17T03:45:20.622Z,94461.88
2019-02-17T03:45:43.465Z,94461.58
2019-02-17T03:46:06.482Z,94461.47
2019-02-17T03:46:29.243Z,94462.25
2019-02-17T03:46:52.072Z,94456.73
2019-02-17T03:47:14.965Z,94461.47
2019-02-17T03:47:38.250Z,94463.49
2019-02-17T03:48:01.444Z,94459.25
2019-02-17T03:48:24.204Z,94460.37
2019-02-17T03:48:46.983Z,94457.05
2019-02-17T03:49:09.827Z,94462.00
2019-02-17T03:49:32.908Z,94457.73
2019-02-17T03:49:55.763Z,94457.05
2019-02-17T03:50:18.685Z,94458.55
2019-02-17T03:50:41.484Z,94457.94
2019-02-17T03:51:04.166Z,94454.33
2019-02-17T03:51:27.044Z,94460.47
2019-02-17T03:51:50.485Z,94456.64
2019-02-17T03:52:13.323Z,94456.94
2019-02-17T03:52:36.604Z,94460.16
2019-02-17T03:52:59.525Z,94457.84
2019-02-17T03:53:22.704Z,94459.14
2019-02-17T03:53:45.523Z,94454.30
2019-02-17T03:54:08.446Z,94458.75
2019-02-17T03:54:31.282Z,94456.94
2019-02-17T03:54:54.142Z,94460.76
2019-02-17T03:55:16.939Z,94446.03
2019-02-17T03:55:39.704Z,94460.23
2019-02-17T03:56:02.703Z,94453.67
2019-02-17T03:56:25.822Z,94455.31
2019-02-17T03:56:48.504Z,94456.69
2019-02-17T03:57:11.783Z,94454.07
2019-02-17T03:57:34.937Z,94452.45
2019-02-17T03:57:57.968Z,94449.72
2019-02-17T03:58:20.782Z,94451.84
2019-02-17T03:58:43.944Z,94457.08
2019-02-17T03:59:06.926Z,94451.53
2019-02-17T03:59:29.905Z,94449.60
2019-02-17T03:59:52.723Z,94452.41
2019-02-17T04:01:16.867Z,94451.86
2019-02-17T04:01:40.283Z,94447.50
2019-02-17T04:02:03.389Z,94452.66
2019-02-17T04:02:26.226Z,94455.58
2019-02-17T04:02:49.043Z,94449.14
2019-02-17T04:03:12.304Z,94450.03
2019-02-17T04:03:35.150Z,94450.63
2019-02-17T04:03:57.983Z,94451.22
2019-02-17T04:04:20.844Z,94446.73
2019-02-17T04:04:43.663Z,94453.60
2019-02-17T04:05:07.252Z,94449.98
2019-02-17T04:05:30.124Z,94452.28
2019-02-17T04:05:52.963Z,94450.72
2019-02-17T04:06:15.843Z,94448.30
2019-02-17T04:06:38.843Z,94449.20
2019-02-17T04:07:01.644Z,94450.54
2019-02-17T04:07:25.045Z,94448.89
2019-02-17T04:07:48.383Z,94448.18
2019-02-17T04:08:11.086Z,94453.72
2019-02-17T04:08:34.023Z,94445.72
2019-02-17T04:08:56.845Z,94455.02
2019-02-17T04:09:19.983Z,94454.22
2019-02-17T04:09:42.804Z,94456.04
2019-02-17T04:10:06.205Z,94457.89
2019-02-17T04:10:29.042Z,94451.75
2019-02-17T04:10:51.824Z,94455.56
2019-02-17T04:11:14.665Z,94453.06
2019-02-17T04:11:37.444Z,94454.16
2019-02-17T04:12:00.204Z,94456.19
2019-02-17T04:12:23.041Z,94456.88
2019-02-17T04:12:45.884Z,94452.75
2019-02-17T04:13:08.605Z,94451.45
2019-02-17T04:13:31.382Z,94449.42
2019-02-17T04:13:54.265Z,94448.11
2019-02-17T04:14:17.243Z,94448.52
2019-02-17T04:14:40.072Z,94444.38
2019-02-17T04:15:02.858Z,94451.72
2019-02-17T04:15:25.843Z,94447.69
2019-02-17T04:15:48.683Z,94447.30
2019-02-17T04:16:11.383Z,94451.63
2019-02-17T04:16:34.283Z,94451.33
2019-02-17T04:16:57.104Z,94450.41
2019-02-17T04:17:20.009Z,94448.70
2019-02-17T04:17:42.743Z,94451.14
2019-02-17T04:18:05.682Z,94446.91
2019-02-17T04:18:28.427Z,94450.84
2019-02-17T04:18:51.425Z,94452.66
2019-02-17T04:19:14.324Z,94448.83
2019-02-17T04:19:37.165Z,94451.45
2019-02-17T04:19:59.963Z,94446.98
2019-02-17T04:20:22.866Z,94448.50
2019-02-17T04:20:46.153Z,94451.30
2019-02-17T04:21:09.014Z,94447.16
2019-02-17T04:21:33.530Z,94445.96
2019-02-17T04:21:58.443Z,94449.90
2019-02-17T04:22:21.223Z,94450.58
2019-02-17T04:22:43.984Z,94452.41
2019-02-17T04:23:07.282Z,94448.47
2019-02-17T04:23:31.907Z,94444.23
2019-02-17T04:23:54.964Z,94446.95
2019-02-17T04:24:17.843Z,94447.75
2019-02-17T04:24:40.706Z,94442.50
2019-02-17T04:25:03.403Z,94448.47
2019-02-17T04:25:26.184Z,94442.97
2019-02-17T04:25:50.763Z,94442.77
2019-02-17T04:26:13.527Z,94440.14
2019-02-17T04:26:36.343Z,94443.56
2019-02-17T04:27:01.831Z,94442.45
2019-02-17T04:27:24.584Z,94438.94
2019-02-17T04:27:47.564Z,94435.77
2019-02-17T04:28:10.344Z,94437.16
2019-02-17T04:28:33.365Z,94441.98
2019-02-17T04:28:56.164Z,94436.95
2019-02-17T04:29:18.943Z,94437.63
2019-02-17T04:29:41.762Z,94438.81
2019-02-17T04:30:04.624Z,94437.41
2019-02-17T04:30:29.595Z,94439.70
2019-02-17T04:30:51.903Z,94440.72
2019-02-17T04:31:15.202Z,94440.25